sensor_id;sensor_type;location;lat;lon;timestamp;P1;durP1;ratioP1;P2;durP2;ratioP2
29940;SDS011;16801;53.562;10.038;2023-05-16T00:02:32;5.70;;;3.23;;
29940;SDS011;16801;53.562;10.038;2023-05-16T00:05:54;1.90;;;1.57;;
29940;SDS011;16801;53.562;10.038;2023-05-16T00:09:15;3.20;;;3.00;;
29940;SDS011;16801;53.562;10.038;2023-05-16T00:12:37;2.43;;;2.20;;
29940;SDS011;16801;53.562;10.038;2023-05-16T00:15:59;2.70;;;2.50;;
29940;SDS011;16801;53.562;10.038;2023-05-16T00:19:20;2.33;;;2.00;;
29940;SDS011;16801;53.562;10.038;2023-05-16T00:22:42;2.33;;;2.17;;
29940;SDS011;16801;53.562;10.038;2023-05-16T00:26:03;1.30;;;1.30;;
29940;SDS011;16801;53.562;10.038;2023-05-16T00:29:25;2.43;;;2.33;;
29940;SDS011;16801;53.562;10.038;2023-05-16T00:32:46;2.00;;;1.83;;
29940;SDS011;16801;53.562;10.038;2023-05-16T00:36:07;2.63;;;1.87;;
29940;SDS011;16801;53.562;10.038;2023-05-16T00:39:28;2.17;;;1.97;;
29940;SDS011;16801;53.562;10.038;2023-05-16T00:42:49;1.30;;;1.20;;
29940;SDS011;16801;53.562;10.038;2023-05-16T00:46:11;1.30;;;1.20;;
29940;SDS011;16801;53.562;10.038;2023-05-16T00:49:32;1.83;;;1.73;;
29940;SDS011;16801;53.562;10.038;2023-05-16T00:52:53;1.23;;;1.20;;
29940;SDS011;16801;53.562;10.038;2023-05-16T00:56:14;2.00;;;1.20;;
29940;SDS011;16801;53.562;10.038;2023-05-16T00:59:35;1.53;;;1.40;;
29940;SDS011;16801;53.562;10.038;2023-05-16T01:02:57;1.83;;;1.33;;
29940;SDS011;16801;53.562;10.038;2023-05-16T01:06:19;2.60;;;2.07;;
29940;SDS011;16801;53.562;10.038;2023-05-16T01:09:40;1.37;;;1.27;;
29940;SDS011;16801;53.562;10.038;2023-05-16T01:13:13;3.50;;;1.53;;
29940;SDS011;16801;53.562;10.038;2023-05-16T01:16:43;4.90;;;2.60;;
29940;SDS011;16801;53.562;10.038;2023-05-16T01:20:12;1.20;;;1.10;;
29940;SDS011;16801;53.562;10.038;2023-05-16T01:23:48;2.00;;;1.13;;
29940;SDS011;16801;53.562;10.038;2023-05-16T01:27:13;1.23;;;0.97;;
29940;SDS011;16801;53.562;10.038;2023-05-16T01:30:37;3.17;;;1.60;;
29940;SDS011;16801;53.562;10.038;2023-05-16T01:34:01;1.37;;;1.10;;
29940;SDS011;16801;53.562;10.038;2023-05-16T01:37:27;1.83;;;1.67;;
29940;SDS011;16801;53.562;10.038;2023-05-16T01:40:54;1.70;;;1.60;;
29940;SDS011;16801;53.562;10.038;2023-05-16T01:44:22;0.97;;;0.97;;
29940;SDS011;16801;53.562;10.038;2023-05-16T01:47:49;2.40;;;1.00;;
29940;SDS011;16801;53.562;10.038;2023-05-16T01:51:17;1.50;;;1.27;;
29940;SDS011;16801;53.562;10.038;2023-05-16T01:54:42;4.73;;;1.90;;
29940;SDS011;16801;53.562;10.038;2023-05-16T01:58:04;2.60;;;1.37;;
29940;SDS011;16801;53.562;10.038;2023-05-16T02:01:29;2.13;;;1.23;;
29940;SDS011;16801;53.562;10.038;2023-05-16T02:04:51;1.47;;;1.37;;
29940;SDS011;16801;53.562;10.038;2023-05-16T02:08:12;2.10;;;1.40;;
29940;SDS011;16801;53.562;10.038;2023-05-16T02:11:34;2.83;;;1.63;;
29940;SDS011;16801;53.562;10.038;2023-05-16T02:14:55;6.37;;;2.17;;
29940;SDS011;16801;53.562;10.038;2023-05-16T02:18:17;2.00;;;1.73;;
29940;SDS011;16801;53.562;10.038;2023-05-16T02:21:38;2.20;;;2.00;;
29940;SDS011;16801;53.562;10.038;2023-05-16T02:24:59;4.53;;;1.87;;
29940;SDS011;16801;53.562;10.038;2023-05-16T02:28:21;4.20;;;2.03;;
29940;SDS011;16801;53.562;10.038;2023-05-16T02:31:42;3.67;;;2.03;;
29940;SDS011;16801;53.562;10.038;2023-05-16T02:35:05;2.87;;;1.53;;
29940;SDS011;16801;53.562;10.038;2023-05-16T02:38:26;3.40;;;1.77;;
29940;SDS011;16801;53.562;10.038;2023-05-16T02:41:48;2.40;;;1.30;;
29940;SDS011;16801;53.562;10.038;2023-05-16T02:45:09;1.63;;;1.40;;
29940;SDS011;16801;53.562;10.038;2023-05-16T02:48:31;4.00;;;1.37;;
29940;SDS011;16801;53.562;10.038;2023-05-16T02:51:53;2.93;;;1.80;;
29940;SDS011;16801;53.562;10.038;2023-05-16T02:55:14;2.73;;;1.97;;
29940;SDS011;16801;53.562;10.038;2023-05-16T02:58:35;8.97;;;2.23;;
29940;SDS011;16801;53.562;10.038;2023-05-16T03:01:56;2.97;;;2.00;;
29940;SDS011;16801;53.562;10.038;2023-05-16T03:05:16;6.90;;;2.27;;
29940;SDS011;16801;53.562;10.038;2023-05-16T03:08:39;3.23;;;1.07;;
29940;SDS011;16801;53.562;10.038;2023-05-16T03:12:03;1.70;;;1.33;;
29940;SDS011;16801;53.562;10.038;2023-05-16T03:15:24;5.37;;;1.83;;
29940;SDS011;16801;53.562;10.038;2023-05-16T03:18:45;6.70;;;2.83;;
29940;SDS011;16801;53.562;10.038;2023-05-16T03:22:06;3.67;;;3.30;;
29940;SDS011;16801;53.562;10.038;2023-05-16T03:25:29;2.63;;;2.43;;
29940;SDS011;16801;53.562;10.038;2023-05-16T03:28:50;3.67;;;2.60;;
29940;SDS011;16801;53.562;10.038;2023-05-16T03:32:11;3.97;;;1.53;;
29940;SDS011;16801;53.562;10.038;2023-05-16T03:35:32;10.67;;;2.17;;
29940;SDS011;16801;53.562;10.038;2023-05-16T03:38:53;7.30;;;2.57;;
29940;SDS011;16801;53.562;10.038;2023-05-16T03:42:16;3.40;;;1.97;;
29940;SDS011;16801;53.562;10.038;2023-05-16T03:45:37;3.83;;;1.63;;
29940;SDS011;16801;53.562;10.038;2023-05-16T03:48:58;4.63;;;1.43;;
29940;SDS011;16801;53.562;10.038;2023-05-16T03:52:19;3.33;;;2.13;;
29940;SDS011;16801;53.562;10.038;2023-05-16T03:55:40;4.03;;;2.23;;
29940;SDS011;16801;53.562;10.038;2023-05-16T03:59:03;5.60;;;2.33;;
29940;SDS011;16801;53.562;10.038;2023-05-16T04:02:24;4.13;;;2.80;;
29940;SDS011;16801;53.562;10.038;2023-05-16T04:05:45;4.07;;;2.03;;
29940;SDS011;16801;53.562;10.038;2023-05-16T04:09:06;3.67;;;2.30;;
29940;SDS011;16801;53.562;10.038;2023-05-16T04:12:28;2.87;;;2.00;;
29940;SDS011;16801;53.562;10.038;2023-05-16T04:15:50;6.27;;;2.47;;
29940;SDS011;16801;53.562;10.038;2023-05-16T04:19:11;4.37;;;1.73;;
29940;SDS011;16801;53.562;10.038;2023-05-16T04:22:32;5.03;;;2.37;;
29940;SDS011;16801;53.562;10.038;2023-05-16T04:25:53;5.50;;;2.73;;
29940;SDS011;16801;53.562;10.038;2023-05-16T04:29:15;5.53;;;2.50;;
29940;SDS011;16801;53.562;10.038;2023-05-16T04:32:37;5.00;;;1.77;;
29940;SDS011;16801;53.562;10.038;2023-05-16T04:35:58;8.70;;;3.27;;
29940;SDS011;16801;53.562;10.038;2023-05-16T04:39:19;4.97;;;2.17;;
29940;SDS011;16801;53.562;10.038;2023-05-16T04:42:40;2.00;;;1.73;;
29940;SDS011;16801;53.562;10.038;2023-05-16T04:46:01;5.83;;;2.23;;
29940;SDS011;16801;53.562;10.038;2023-05-16T04:49:24;1.80;;;1.27;;
29940;SDS011;16801;53.562;10.038;2023-05-16T04:52:45;2.03;;;1.47;;
29940;SDS011;16801;53.562;10.038;2023-05-16T04:56:06;5.10;;;2.17;;
29940;SDS011;16801;53.562;10.038;2023-05-16T04:59:27;9.43;;;2.23;;
29940;SDS011;16801;53.562;10.038;2023-05-16T05:02:47;4.07;;;2.27;;
29940;SDS011;16801;53.562;10.038;2023-05-16T05:06:09;1.47;;;1.13;;
29940;SDS011;16801;53.562;10.038;2023-05-16T05:09:30;6.63;;;2.03;;
29940;SDS011;16801;53.562;10.038;2023-05-16T05:12:51;2.33;;;1.43;;
29940;SDS011;16801;53.562;10.038;2023-05-16T05:16:12;3.10;;;2.17;;
29940;SDS011;16801;53.562;10.038;2023-05-16T05:19:33;2.10;;;1.53;;
29940;SDS011;16801;53.562;10.038;2023-05-16T05:22:55;2.60;;;1.70;;
29940;SDS011;16801;53.562;10.038;2023-05-16T05:26:16;5.97;;;2.70;;
29940;SDS011;16801;53.562;10.038;2023-05-16T05:29:37;3.67;;;1.67;;
29940;SDS011;16801;53.562;10.038;2023-05-16T05:32:58;8.00;;;1.87;;
29940;SDS011;16801;53.562;10.038;2023-05-16T05:36:19;5.17;;;2.27;;
29940;SDS011;16801;53.562;10.038;2023-05-16T05:43:03;4.57;;;1.53;;
29940;SDS011;16801;53.562;10.038;2023-05-16T05:46:24;4.47;;;2.33;;
29940;SDS011;16801;53.562;10.038;2023-05-16T05:49:45;3.50;;;1.27;;
29940;SDS011;16801;53.562;10.038;2023-05-16T05:53:06;9.43;;;2.10;;
29940;SDS011;16801;53.562;10.038;2023-05-16T05:56:29;4.53;;;2.00;;
29940;SDS011;16801;53.562;10.038;2023-05-16T05:59:49;3.67;;;2.00;;
29940;SDS011;16801;53.562;10.038;2023-05-16T06:03:10;3.73;;;2.27;;
29940;SDS011;16801;53.562;10.038;2023-05-16T06:06:31;4.87;;;2.10;;
29940;SDS011;16801;53.562;10.038;2023-05-16T06:09:52;2.97;;;1.27;;
29940;SDS011;16801;53.562;10.038;2023-05-16T06:13:17;6.10;;;1.80;;
29940;SDS011;16801;53.562;10.038;2023-05-16T06:16:37;2.40;;;1.37;;
29940;SDS011;16801;53.562;10.038;2023-05-16T06:19:58;15.40;;;2.50;;
29940;SDS011;16801;53.562;10.038;2023-05-16T06:23:20;2.07;;;1.70;;
29940;SDS011;16801;53.562;10.038;2023-05-16T06:26:40;2.83;;;1.97;;
29940;SDS011;16801;53.562;10.038;2023-05-16T06:30:07;4.83;;;3.33;;
29940;SDS011;16801;53.562;10.038;2023-05-16T06:33:28;2.63;;;1.00;;
29940;SDS011;16801;53.562;10.038;2023-05-16T06:36:50;3.70;;;1.80;;
29940;SDS011;16801;53.562;10.038;2023-05-16T06:40:11;2.27;;;1.47;;
29940;SDS011;16801;53.562;10.038;2023-05-16T06:43:32;8.80;;;1.87;;
29940;SDS011;16801;53.562;10.038;2023-05-16T06:46:54;5.47;;;2.53;;
29940;SDS011;16801;53.562;10.038;2023-05-16T06:50:15;4.33;;;1.90;;
29940;SDS011;16801;53.562;10.038;2023-05-16T06:53:36;5.33;;;2.37;;
29940;SDS011;16801;53.562;10.038;2023-05-16T06:56:57;6.33;;;2.17;;
29940;SDS011;16801;53.562;10.038;2023-05-16T07:00:19;5.50;;;2.77;;
29940;SDS011;16801;53.562;10.038;2023-05-16T07:03:42;3.60;;;1.50;;
29940;SDS011;16801;53.562;10.038;2023-05-16T07:07:03;4.13;;;1.30;;
29940;SDS011;16801;53.562;10.038;2023-05-16T07:10:26;4.13;;;2.50;;
29940;SDS011;16801;53.562;10.038;2023-05-16T07:13:46;1.90;;;1.67;;
29940;SDS011;16801;53.562;10.038;2023-05-16T07:17:07;4.80;;;2.00;;
29940;SDS011;16801;53.562;10.038;2023-05-16T07:20:30;6.27;;;1.90;;
29940;SDS011;16801;53.562;10.038;2023-05-16T07:23:51;2.93;;;1.40;;
29940;SDS011;16801;53.562;10.038;2023-05-16T07:27:11;4.17;;;1.33;;
29940;SDS011;16801;53.562;10.038;2023-05-16T07:30:32;1.10;;;1.07;;
29940;SDS011;16801;53.562;10.038;2023-05-16T07:33:54;1.33;;;0.80;;
29940;SDS011;16801;53.562;10.038;2023-05-16T07:37:16;5.27;;;2.27;;
29940;SDS011;16801;53.562;10.038;2023-05-16T07:40:39;7.20;;;3.93;;
29940;SDS011;16801;53.562;10.038;2023-05-16T07:43:59;1.27;;;1.00;;
29940;SDS011;16801;53.562;10.038;2023-05-16T07:47:20;7.37;;;1.53;;
29940;SDS011;16801;53.562;10.038;2023-05-16T07:50:41;2.50;;;1.10;;
29940;SDS011;16801;53.562;10.038;2023-05-16T07:54:04;6.13;;;1.37;;
29940;SDS011;16801;53.562;10.038;2023-05-16T07:57:25;4.27;;;1.07;;
29940;SDS011;16801;53.562;10.038;2023-05-16T08:00:46;2.23;;;1.10;;
29940;SDS011;16801;53.562;10.038;2023-05-16T08:04:07;4.47;;;2.60;;
29940;SDS011;16801;53.562;10.038;2023-05-16T08:07:28;2.00;;;1.13;;
29940;SDS011;16801;53.562;10.038;2023-05-16T08:10:51;1.43;;;1.20;;
29940;SDS011;16801;53.562;10.038;2023-05-16T08:14:12;2.27;;;1.70;;
29940;SDS011;16801;53.562;10.038;2023-05-16T08:17:33;1.47;;;0.90;;
29940;SDS011;16801;53.562;10.038;2023-05-16T08:20:54;4.13;;;1.40;;
29940;SDS011;16801;53.562;10.038;2023-05-16T08:24:15;2.73;;;1.33;;
29940;SDS011;16801;53.562;10.038;2023-05-16T08:27:37;14.37;;;2.40;;
29940;SDS011;16801;53.562;10.038;2023-05-16T08:30:58;2.10;;;1.40;;
29940;SDS011;16801;53.562;10.038;2023-05-16T08:34:18;2.07;;;1.10;;
29940;SDS011;16801;53.562;10.038;2023-05-16T08:37:39;1.93;;;1.27;;
29940;SDS011;16801;53.562;10.038;2023-05-16T08:41:00;1.43;;;1.33;;
29940;SDS011;16801;53.562;10.038;2023-05-16T08:44:22;5.97;;;1.90;;
29940;SDS011;16801;53.562;10.038;2023-05-16T08:47:43;1.50;;;1.40;;
29940;SDS011;16801;53.562;10.038;2023-05-16T08:51:07;3.53;;;1.93;;
29940;SDS011;16801;53.562;10.038;2023-05-16T08:54:29;5.67;;;1.57;;
29940;SDS011;16801;53.562;10.038;2023-05-16T08:57:50;2.77;;;1.30;;
29940;SDS011;16801;53.562;10.038;2023-05-16T09:01:12;1.90;;;1.57;;
29940;SDS011;16801;53.562;10.038;2023-05-16T09:04:33;3.87;;;1.03;;
29940;SDS011;16801;53.562;10.038;2023-05-16T09:07:56;3.03;;;2.07;;
29940;SDS011;16801;53.562;10.038;2023-05-16T09:11:17;0.97;;;0.83;;
29940;SDS011;16801;53.562;10.038;2023-05-16T09:14:40;5.33;;;1.43;;
29940;SDS011;16801;53.562;10.038;2023-05-16T09:18:03;2.23;;;1.30;;
29940;SDS011;16801;53.562;10.038;2023-05-16T09:21:25;3.13;;;0.93;;
29940;SDS011;16801;53.562;10.038;2023-05-16T09:24:47;2.50;;;0.97;;
29940;SDS011;16801;53.562;10.038;2023-05-16T09:28:11;1.40;;;1.10;;
29940;SDS011;16801;53.562;10.038;2023-05-16T09:31:31;1.20;;;1.10;;
29940;SDS011;16801;53.562;10.038;2023-05-16T09:34:58;4.87;;;1.80;;
29940;SDS011;16801;53.562;10.038;2023-05-16T09:38:18;3.00;;;1.40;;
29940;SDS011;16801;53.562;10.038;2023-05-16T09:41:39;1.50;;;1.40;;
29940;SDS011;16801;53.562;10.038;2023-05-16T09:45:00;8.07;;;2.03;;
29940;SDS011;16801;53.562;10.038;2023-05-16T09:48:21;0.80;;;0.80;;
29940;SDS011;16801;53.562;10.038;2023-05-16T09:51:45;3.13;;;1.60;;
29940;SDS011;16801;53.562;10.038;2023-05-16T09:55:06;2.20;;;1.20;;
29940;SDS011;16801;53.562;10.038;2023-05-16T09:58:29;2.90;;;1.17;;
29940;SDS011;16801;53.562;10.038;2023-05-16T10:01:50;2.00;;;0.90;;
29940;SDS011;16801;53.562;10.038;2023-05-16T10:05:12;2.00;;;1.77;;
29940;SDS011;16801;53.562;10.038;2023-05-16T10:08:35;4.57;;;1.40;;
29940;SDS011;16801;53.562;10.038;2023-05-16T10:11:56;3.93;;;1.60;;
29940;SDS011;16801;53.562;10.038;2023-05-16T10:15:21;4.93;;;2.37;;
29940;SDS011;16801;53.562;10.038;2023-05-16T10:18:42;2.27;;;1.50;;
29940;SDS011;16801;53.562;10.038;2023-05-16T10:22:05;4.47;;;2.10;;
29940;SDS011;16801;53.562;10.038;2023-05-16T10:25:31;2.90;;;2.10;;
29940;SDS011;16801;53.562;10.038;2023-05-16T10:28:53;5.83;;;2.37;;
29940;SDS011;16801;53.562;10.038;2023-05-16T10:32:15;1.30;;;1.20;;
29940;SDS011;16801;53.562;10.038;2023-05-16T10:35:36;1.80;;;1.70;;
29940;SDS011;16801;53.562;10.038;2023-05-16T10:38:58;3.87;;;1.87;;
29940;SDS011;16801;53.562;10.038;2023-05-16T10:42:21;4.83;;;1.90;;
29940;SDS011;16801;53.562;10.038;2023-05-16T10:45:42;2.70;;;1.53;;
29940;SDS011;16801;53.562;10.038;2023-05-16T10:49:18;2.27;;;1.10;;
29940;SDS011;16801;53.562;10.038;2023-05-16T10:52:40;3.53;;;1.63;;
29940;SDS011;16801;53.562;10.038;2023-05-16T10:56:05;1.80;;;0.90;;
29940;SDS011;16801;53.562;10.038;2023-05-16T10:59:30;2.17;;;1.10;;
29940;SDS011;16801;53.562;10.038;2023-05-16T11:03:03;1.50;;;1.40;;
29940;SDS011;16801;53.562;10.038;2023-05-16T11:06:26;3.13;;;1.47;;
29940;SDS011;16801;53.562;10.038;2023-05-16T11:10:06;1.13;;;1.03;;
29940;SDS011;16801;53.562;10.038;2023-05-16T11:13:28;2.60;;;1.40;;
29940;SDS011;16801;53.562;10.038;2023-05-16T11:16:55;2.20;;;1.93;;
29940;SDS011;16801;53.562;10.038;2023-05-16T11:20:24;1.27;;;1.17;;
29940;SDS011;16801;53.562;10.038;2023-05-16T11:23:49;1.30;;;0.80;;
29940;SDS011;16801;53.562;10.038;2023-05-16T11:27:49;1.43;;;0.63;;
29940;SDS011;16801;53.562;10.038;2023-05-16T11:31:10;0.90;;;0.90;;
29940;SDS011;16801;53.562;10.038;2023-05-16T11:34:34;8.40;;;1.27;;
29940;SDS011;16801;53.562;10.038;2023-05-16T11:37:58;1.00;;;1.00;;
29940;SDS011;16801;53.562;10.038;2023-05-16T11:41:18;3.37;;;0.90;;
29940;SDS011;16801;53.562;10.038;2023-05-16T11:44:41;3.25;;;1.33;;
29940;SDS011;16801;53.562;10.038;2023-05-16T11:48:02;1.30;;;0.90;;
29940;SDS011;16801;53.562;10.038;2023-05-16T11:51:25;3.40;;;1.43;;
29940;SDS011;16801;53.562;10.038;2023-05-16T11:54:54;0.57;;;0.57;;
29940;SDS011;16801;53.562;10.038;2023-05-16T11:58:15;1.07;;;0.70;;
29940;SDS011;16801;53.562;10.038;2023-05-16T12:01:37;1.20;;;1.10;;
29940;SDS011;16801;53.562;10.038;2023-05-16T12:04:59;0.67;;;0.67;;
29940;SDS011;16801;53.562;10.038;2023-05-16T12:08:29;4.80;;;1.40;;
29940;SDS011;16801;53.562;10.038;2023-05-16T12:11:50;2.53;;;0.60;;
29940;SDS011;16801;53.562;10.038;2023-05-16T12:15:11;2.97;;;1.00;;
29940;SDS011;16801;53.562;10.038;2023-05-16T12:18:42;3.57;;;1.10;;
29940;SDS011;16801;53.562;10.038;2023-05-16T12:22:04;6.53;;;1.50;;
29940;SDS011;16801;53.562;10.038;2023-05-16T12:25:26;2.13;;;1.10;;
29940;SDS011;16801;53.562;10.038;2023-05-16T12:28:52;1.10;;;1.00;;
29940;SDS011;16801;53.562;10.038;2023-05-16T12:32:16;1.67;;;1.33;;
29940;SDS011;16801;53.562;10.038;2023-05-16T12:35:38;2.73;;;2.00;;
29940;SDS011;16801;53.562;10.038;2023-05-16T12:39:00;2.03;;;1.73;;
29940;SDS011;16801;53.562;10.038;2023-05-16T12:42:23;2.37;;;0.67;;
29940;SDS011;16801;53.562;10.038;2023-05-16T12:45:48;0.80;;;0.63;;
29940;SDS011;16801;53.562;10.038;2023-05-16T12:49:11;0.98;;;0.80;;
29940;SDS011;16801;53.562;10.038;2023-05-16T12:52:32;2.00;;;1.13;;
29940;SDS011;16801;53.562;10.038;2023-05-16T12:55:53;4.40;;;2.45;;
29940;SDS011;16801;53.562;10.038;2023-05-16T12:59:15;1.65;;;1.17;;
29940;SDS011;16801;53.562;10.038;2023-05-16T13:02:38;1.88;;;0.90;;
29940;SDS011;16801;53.562;10.038;2023-05-16T13:05:59;2.03;;;1.30;;
29940;SDS011;16801;53.562;10.038;2023-05-16T13:09:19;1.52;;;1.42;;
29940;SDS011;16801;53.562;10.038;2023-05-16T13:12:41;4.25;;;1.20;;
29940;SDS011;16801;53.562;10.038;2023-05-16T13:16:04;1.83;;;0.90;;
29940;SDS011;16801;53.562;10.038;2023-05-16T13:19:25;6.43;;;1.48;;
29940;SDS011;16801;53.562;10.038;2023-05-16T13:22:46;2.80;;;0.88;;
29940;SDS011;16801;53.562;10.038;2023-05-16T13:26:07;0.57;;;0.57;;
29940;SDS011;16801;53.562;10.038;2023-05-16T13:29:29;1.40;;;0.57;;
29940;SDS011;16801;53.562;10.038;2023-05-16T13:32:52;1.00;;;0.75;;
29940;SDS011;16801;53.562;10.038;2023-05-16T13:36:12;1.02;;;0.90;;
29940;SDS011;16801;53.562;10.038;2023-05-16T13:39:33;3.92;;;1.30;;
29940;SDS011;16801;53.562;10.038;2023-05-16T13:42:54;1.15;;;0.80;;
29940;SDS011;16801;53.562;10.038;2023-05-16T13:46:16;2.80;;;0.68;;
29940;SDS011;16801;53.562;10.038;2023-05-16T13:49:38;1.23;;;0.82;;
29940;SDS011;16801;53.562;10.038;2023-05-16T13:52:59;4.03;;;0.90;;
29940;SDS011;16801;53.562;10.038;2023-05-16T13:56:20;1.90;;;1.05;;
29940;SDS011;16801;53.562;10.038;2023-05-16T13:59:41;1.63;;;0.77;;
29940;SDS011;16801;53.562;10.038;2023-05-16T14:03:02;1.27;;;1.03;;
29940;SDS011;16801;53.562;10.038;2023-05-16T14:06:24;1.77;;;1.10;;
29940;SDS011;16801;53.562;10.038;2023-05-16T14:09:45;1.33;;;0.97;;
29940;SDS011;16801;53.562;10.038;2023-05-16T14:13:06;0.87;;;0.50;;
29940;SDS011;16801;53.562;10.038;2023-05-16T14:16:27;1.07;;;0.60;;
29940;SDS011;16801;53.562;10.038;2023-05-16T14:19:49;1.03;;;0.90;;
29940;SDS011;16801;53.562;10.038;2023-05-16T14:23:12;1.07;;;0.63;;
29940;SDS011;16801;53.562;10.038;2023-05-16T14:26:33;1.70;;;1.60;;
29940;SDS011;16801;53.562;10.038;2023-05-16T14:29:54;7.70;;;1.43;;
29940;SDS011;16801;53.562;10.038;2023-05-16T14:33:15;3.13;;;1.33;;
29940;SDS011;16801;53.562;10.038;2023-05-16T14:36:36;2.63;;;1.07;;
29940;SDS011;16801;53.562;10.038;2023-05-16T14:39:58;5.23;;;1.03;;
29940;SDS011;16801;53.562;10.038;2023-05-16T14:43:19;2.53;;;1.40;;
29940;SDS011;16801;53.562;10.038;2023-05-16T14:46:40;1.27;;;1.00;;
29940;SDS011;16801;53.562;10.038;2023-05-16T14:50:01;2.00;;;0.83;;
29940;SDS011;16801;53.562;10.038;2023-05-16T14:53:24;4.70;;;1.13;;
29940;SDS011;16801;53.562;10.038;2023-05-16T14:56:47;1.13;;;0.83;;
29940;SDS011;16801;53.562;10.038;2023-05-16T15:00:08;1.03;;;0.70;;
29940;SDS011;16801;53.562;10.038;2023-05-16T15:03:30;1.20;;;1.10;;
29940;SDS011;16801;53.562;10.038;2023-05-16T15:06:51;1.60;;;0.40;;
29940;SDS011;16801;53.562;10.038;2023-05-16T15:10:12;2.27;;;0.90;;
29940;SDS011;16801;53.562;10.038;2023-05-16T15:13:34;2.53;;;1.00;;
29940;SDS011;16801;53.562;10.038;2023-05-16T15:16:55;1.03;;;0.70;;
29940;SDS011;16801;53.562;10.038;2023-05-16T15:20:16;1.37;;;0.90;;
29940;SDS011;16801;53.562;10.038;2023-05-16T15:23:37;1.20;;;0.93;;
29940;SDS011;16801;53.562;10.038;2023-05-16T15:26:58;4.37;;;1.77;;
29940;SDS011;16801;53.562;10.038;2023-05-16T15:30:20;3.03;;;2.27;;
29940;SDS011;16801;53.562;10.038;2023-05-16T15:33:41;3.03;;;1.33;;
29940;SDS011;16801;53.562;10.038;2023-05-16T15:37:03;1.97;;;1.57;;
29940;SDS011;16801;53.562;10.038;2023-05-16T15:40:24;2.53;;;1.30;;
29940;SDS011;16801;53.562;10.038;2023-05-16T15:43:46;1.53;;;1.20;;
29940;SDS011;16801;53.562;10.038;2023-05-16T15:47:08;4.80;;;1.60;;
29940;SDS011;16801;53.562;10.038;2023-05-16T15:50:29;1.87;;;1.47;;
29940;SDS011;16801;53.562;10.038;2023-05-16T15:53:50;6.30;;;1.67;;
29940;SDS011;16801;53.562;10.038;2023-05-16T15:57:11;3.07;;;2.07;;
29940;SDS011;16801;53.562;10.038;2023-05-16T16:00:32;1.73;;;1.10;;
29940;SDS011;16801;53.562;10.038;2023-05-16T16:03:54;3.07;;;1.57;;
29940;SDS011;16801;53.562;10.038;2023-05-16T16:07:15;2.80;;;1.70;;
29940;SDS011;16801;53.562;10.038;2023-05-16T16:10:36;2.30;;;1.57;;
29940;SDS011;16801;53.562;10.038;2023-05-16T16:13:57;3.00;;;1.80;;
29940;SDS011;16801;53.562;10.038;2023-05-16T16:17:17;4.73;;;1.70;;
29940;SDS011;16801;53.562;10.038;2023-05-16T16:20:40;2.30;;;1.30;;
29940;SDS011;16801;53.562;10.038;2023-05-16T16:24:00;3.20;;;1.47;;
29940;SDS011;16801;53.562;10.038;2023-05-16T16:27:21;3.37;;;2.30;;
29940;SDS011;16801;53.562;10.038;2023-05-16T16:30:42;5.77;;;2.80;;
29940;SDS011;16801;53.562;10.038;2023-05-16T16:34:05;2.43;;;1.70;;
29940;SDS011;16801;53.562;10.038;2023-05-16T16:37:27;1.77;;;1.33;;
29940;SDS011;16801;53.562;10.038;2023-05-16T16:40:48;1.70;;;1.43;;
29940;SDS011;16801;53.562;10.038;2023-05-16T16:44:09;2.20;;;1.10;;
29940;SDS011;16801;53.562;10.038;2023-05-16T16:47:30;3.03;;;1.27;;
29940;SDS011;16801;53.562;10.038;2023-05-16T16:50:52;2.00;;;1.60;;
29940;SDS011;16801;53.562;10.038;2023-05-16T16:54:14;2.70;;;1.60;;
29940;SDS011;16801;53.562;10.038;2023-05-16T16:57:35;2.33;;;1.00;;
29940;SDS011;16801;53.562;10.038;2023-05-16T17:00:56;0.90;;;0.90;;
29940;SDS011;16801;53.562;10.038;2023-05-16T17:04:17;1.97;;;1.10;;
29940;SDS011;16801;53.562;10.038;2023-05-16T17:07:38;4.83;;;3.93;;
29940;SDS011;16801;53.562;10.038;2023-05-16T17:11:00;6.53;;;1.60;;
29940;SDS011;16801;53.562;10.038;2023-05-16T17:14:23;1.57;;;1.47;;
29940;SDS011;16801;53.562;10.038;2023-05-16T17:17:44;3.87;;;2.83;;
29940;SDS011;16801;53.562;10.038;2023-05-16T17:21:07;5.37;;;2.67;;
29940;SDS011;16801;53.562;10.038;2023-05-16T17:24:30;5.03;;;1.97;;
29940;SDS011;16801;53.562;10.038;2023-05-16T17:27:53;2.70;;;1.73;;
29940;SDS011;16801;53.562;10.038;2023-05-16T17:31:14;5.40;;;4.73;;
29940;SDS011;16801;53.562;10.038;2023-05-16T17:34:35;3.97;;;3.57;;
29940;SDS011;16801;53.562;10.038;2023-05-16T17:37:56;3.60;;;2.57;;
29940;SDS011;16801;53.562;10.038;2023-05-16T17:41:17;3.37;;;2.20;;
29940;SDS011;16801;53.562;10.038;2023-05-16T17:44:39;4.63;;;3.30;;
29940;SDS011;16801;53.562;10.038;2023-05-16T17:48:00;3.00;;;1.90;;
29940;SDS011;16801;53.562;10.038;2023-05-16T17:51:21;3.03;;;2.33;;
29940;SDS011;16801;53.562;10.038;2023-05-16T17:54:42;4.47;;;2.83;;
29940;SDS011;16801;53.562;10.038;2023-05-16T17:58:03;3.97;;;2.20;;
29940;SDS011;16801;53.562;10.038;2023-05-16T18:01:26;5.17;;;4.03;;
29940;SDS011;16801;53.562;10.038;2023-05-16T18:04:47;8.47;;;3.27;;
29940;SDS011;16801;53.562;10.038;2023-05-16T18:08:08;6.67;;;3.30;;
29940;SDS011;16801;53.562;10.038;2023-05-16T18:11:28;8.80;;;3.50;;
29940;SDS011;16801;53.562;10.038;2023-05-16T18:14:49;6.73;;;2.90;;
29940;SDS011;16801;53.562;10.038;2023-05-16T18:18:12;5.97;;;2.17;;
29940;SDS011;16801;53.562;10.038;2023-05-16T18:21:33;7.03;;;2.20;;
29940;SDS011;16801;53.562;10.038;2023-05-16T18:24:54;8.17;;;2.97;;
29940;SDS011;16801;53.562;10.038;2023-05-16T18:28:16;7.53;;;3.50;;
29940;SDS011;16801;53.562;10.038;2023-05-16T18:31:37;6.97;;;3.00;;
29940;SDS011;16801;53.562;10.038;2023-05-16T18:35:02;6.50;;;3.20;;
29940;SDS011;16801;53.562;10.038;2023-05-16T18:38:23;4.77;;;3.37;;
29940;SDS011;16801;53.562;10.038;2023-05-16T18:41:43;9.67;;;3.53;;
29940;SDS011;16801;53.562;10.038;2023-05-16T18:45:06;4.97;;;4.33;;
29940;SDS011;16801;53.562;10.038;2023-05-16T18:48:27;5.33;;;4.83;;
29940;SDS011;16801;53.562;10.038;2023-05-16T18:51:50;5.60;;;3.73;;
29940;SDS011;16801;53.562;10.038;2023-05-16T18:55:11;8.33;;;3.60;;
29940;SDS011;16801;53.562;10.038;2023-05-16T18:58:32;5.33;;;3.50;;
29940;SDS011;16801;53.562;10.038;2023-05-16T19:01:53;8.93;;;3.00;;
29940;SDS011;16801;53.562;10.038;2023-05-16T19:05:14;8.27;;;5.17;;
29940;SDS011;16801;53.562;10.038;2023-05-16T19:08:36;6.53;;;4.20;;
29940;SDS011;16801;53.562;10.038;2023-05-16T19:11:56;7.90;;;4.50;;
29940;SDS011;16801;53.562;10.038;2023-05-16T19:15:17;11.10;;;4.63;;
29940;SDS011;16801;53.562;10.038;2023-05-16T19:18:38;7.73;;;2.87;;
29940;SDS011;16801;53.562;10.038;2023-05-16T19:21:58;8.97;;;3.30;;
29940;SDS011;16801;53.562;10.038;2023-05-16T19:25:21;5.20;;;4.20;;
29940;SDS011;16801;53.562;10.038;2023-05-16T19:28:41;8.17;;;3.13;;
29940;SDS011;16801;53.562;10.038;2023-05-16T19:32:02;5.80;;;3.23;;
29940;SDS011;16801;53.562;10.038;2023-05-16T19:35:24;8.87;;;3.60;;
29940;SDS011;16801;53.562;10.038;2023-05-16T19:38:45;7.57;;;3.83;;
29940;SDS011;16801;53.562;10.038;2023-05-16T19:42:07;4.37;;;2.97;;
29940;SDS011;16801;53.562;10.038;2023-05-16T19:45:28;9.13;;;4.13;;
29940;SDS011;16801;53.562;10.038;2023-05-16T19:48:48;6.10;;;3.83;;
29940;SDS011;16801;53.562;10.038;2023-05-16T19:52:09;7.70;;;3.37;;
29940;SDS011;16801;53.562;10.038;2023-05-16T19:55:31;8.73;;;4.07;;
29940;SDS011;16801;53.562;10.038;2023-05-16T19:58:54;8.53;;;3.50;;
29940;SDS011;16801;53.562;10.038;2023-05-16T20:02:15;8.57;;;4.67;;